createdAt,value
2019-03-17T00:01:56.717Z,117.22
2019-03-17T00:04:16.178Z,125.10
2019-03-17T00:06:46.003Z,129.25
2019-03-17T00:09:15.855Z,141.95
2019-03-17T00:11:45.752Z,126.72
2019-03-17T00:14:15.729Z,129.55
2019-03-17T00:16:45.536Z,133.45
2019-03-17T00:19:15.509Z,138.40
2019-03-17T00:21:45.374Z,146.50
2019-03-17T00:24:15.347Z,134.20
2019-03-17T00:26:45.328Z,128.02
2019-03-17T00:29:15.175Z,137.88
2019-03-17T00:31:45.080Z,129.05
2019-03-17T00:34:15.104Z,119.82
2019-03-17T00:36:44.882Z,134.07
2019-03-17T00:39:14.785Z,128.95
2019-03-17T00:41:44.728Z,131.95
2019-03-17T00:44:14.764Z,127.40
2019-03-17T00:46:44.592Z,123.13
2019-03-17T00:49:14.509Z,130.22
2019-03-17T00:51:44.356Z,133.05
2019-03-17T00:54:14.318Z,132.90
2019-03-17T00:56:44.215Z,131.05
2019-03-17T00:59:14.058Z,133.40
2019-03-17T01:01:43.967Z,127.50
2019-03-17T01:04:13.985Z,123.35
2019-03-17T01:06:45.011Z,143.85
2019-03-17T01:09:15.022Z,146.72
2019-03-17T01:11:44.992Z,147.15
2019-03-17T01:14:14.968Z,138.45
2019-03-17T01:16:44.873Z,151.00
2019-03-17T01:19:14.773Z,145.17
2019-03-17T01:21:44.747Z,141.37
2019-03-17T01:24:14.591Z,165.68
2019-03-17T01:26:44.494Z,153.70
2019-03-17T01:29:14.385Z,162.92
2019-03-17T01:31:44.300Z,150.22
2019-03-17T01:34:14.199Z,159.00
2019-03-17T01:36:44.099Z,153.93
2019-03-17T01:39:14.027Z,161.28
2019-03-17T01:41:44.938Z,163.12
2019-03-17T01:44:14.764Z,151.97
2019-03-17T01:46:44.802Z,164.40
2019-03-17T01:49:14.644Z,156.28
2019-03-17T01:51:44.537Z,154.82
2019-03-17T01:54:14.448Z,161.45
2019-03-17T01:56:44.356Z,170.97
2019-03-17T01:59:14.244Z,163.30
2019-03-17T02:01:44.286Z,169.02
2019-03-17T02:04:14.240Z,164.65
2019-03-17T02:06:44.137Z,171.80
2019-03-17T02:09:15.115Z,169.90
2019-03-17T02:11:45.038Z,167.45
2019-03-17T02:14:14.925Z,165.47
2019-03-17T02:16:44.926Z,173.50
2019-03-17T02:19:14.898Z,171.05
2019-03-17T02:21:44.733Z,168.85
2019-03-17T02:24:14.614Z,160.00
2019-03-17T02:26:44.468Z,159.78
2019-03-17T02:29:14.261Z,170.70
2019-03-17T02:31:44.271Z,169.55
2019-03-17T02:34:14.245Z,165.43
2019-03-17T02:36:44.139Z,163.20
2019-03-17T02:39:14.115Z,159.03
2019-03-17T02:41:44.085Z,156.00
2019-03-17T02:44:14.130Z,149.65
2019-03-17T02:46:44.018Z,167.57
2019-03-17T02:49:13.932Z,159.03
2019-03-17T02:51:43.893Z,165.70
2019-03-17T02:54:13.877Z,166.50
2019-03-17T02:56:43.924Z,172.25
2019-03-17T02:59:14.046Z,162.72
2019-03-17T03:01:44.209Z,150.72
2019-03-17T03:04:14.183Z,159.05
2019-03-17T03:06:44.000Z,141.10
2019-03-17T03:09:14.966Z,159.48
2019-03-17T03:11:44.873Z,157.95
2019-03-17T03:14:14.701Z,164.75
2019-03-17T03:16:44.677Z,171.45
2019-03-17T03:19:14.504Z,147.82
2019-03-17T03:21:44.420Z,143.13
2019-03-17T03:24:14.319Z,157.55
2019-03-17T03:26:44.259Z,150.35
2019-03-17T03:29:14.229Z,166.43
2019-03-17T03:31:44.130Z,164.65
2019-03-17T03:34:13.960Z,158.87
2019-03-17T03:36:43.864Z,156.87
2019-03-17T03:39:13.777Z,157.80
2019-03-17T03:41:43.752Z,153.38
2019-03-17T03:44:13.735Z,169.28
2019-03-17T03:46:44.617Z,170.32
2019-03-17T03:49:15.499Z,176.00
2019-03-17T03:51:45.393Z,175.03
2019-03-17T03:54:15.290Z,172.60
2019-03-17T03:56:45.140Z,180.00
2019-03-17T03:59:15.110Z,184.07
2019-03-17T04:01:45.014Z,186.88
2019-03-17T04:04:14.911Z,200.22
2019-03-17T04:06:45.972Z,184.78
2019-03-17T04:09:15.870Z,190.55
2019-03-17T04:11:45.772Z,183.68
2019-03-17T04:14:15.677Z,192.75
2019-03-17T04:16:45.761Z,186.40
2019-03-17T04:19:15.673Z,191.07
2019-03-17T04:21:45.527Z,201.70
2019-03-17T04:24:15.430Z,200.97
2019-03-17T04:26:46.424Z,171.60
2019-03-17T04:29:16.405Z,164.30
2019-03-17T04:31:46.421Z,180.30
2019-03-17T04:34:16.285Z,167.93
2019-03-17T04:36:46.251Z,160.90
2019-03-17T04:39:16.173Z,166.88
2019-03-17T04:41:46.001Z,174.40
2019-03-17T04:44:20.978Z,172.13
2019-03-17T04:46:47.380Z,165.73
2019-03-17T04:49:17.343Z,177.87
2019-03-17T04:51:47.365Z,165.85
2019-03-17T04:54:17.258Z,169.32
2019-03-17T04:56:47.180Z,183.55
2019-03-17T04:59:17.092Z,170.97
2019-03-17T05:01:47.000Z,167.72
2019-03-17T05:04:16.981Z,175.27
2019-03-17T05:06:52.453Z,157.40
2019-03-17T05:09:18.429Z,172.80
2019-03-17T05:11:48.401Z,167.75
2019-03-17T05:14:19.373Z,195.07
2019-03-17T05:16:49.351Z,181.45
2019-03-17T05:19:19.257Z,172.02
2019-03-17T05:21:49.210Z,156.18
2019-03-17T05:24:19.102Z,153.90
2019-03-17T05:26:48.929Z,159.25
2019-03-17T05:29:18.837Z,152.55
2019-03-17T05:31:48.806Z,158.52
2019-03-17T05:34:18.718Z,170.45
2019-03-17T05:36:48.614Z,161.37
2019-03-17T05:39:18.561Z,165.22
2019-03-17T05:41:48.466Z,158.57
2019-03-17T05:44:18.460Z,163.82
2019-03-17T05:46:48.385Z,158.90
2019-03-17T05:49:18.217Z,144.05
2019-03-17T05:51:48.124Z,138.25
2019-03-17T05:54:18.110Z,157.07
2019-03-17T05:56:48.083Z,165.28
2019-03-17T05:59:19.688Z,142.93
2019-03-17T06:01:49.649Z,153.90
2019-03-17T06:04:19.473Z,144.57
2019-03-17T06:06:49.308Z,159.05
2019-03-17T06:09:19.201Z,148.60
2019-03-17T06:11:49.040Z,141.65
2019-03-17T06:14:19.004Z,146.68
2019-03-17T06:16:49.056Z,154.18
2019-03-17T06:19:19.132Z,165.00
2019-03-17T06:21:49.037Z,161.30
2019-03-17T06:24:18.945Z,145.35
2019-03-17T06:26:48.841Z,148.22
2019-03-17T06:29:18.915Z,150.82
2019-03-17T06:31:49.709Z,141.77
2019-03-17T06:34:19.696Z,144.07
2019-03-17T06:36:49.593Z,138.22
2019-03-17T06:39:20.569Z,151.05
2019-03-17T06:41:50.464Z,143.00
2019-03-17T06:44:20.292Z,143.95
2019-03-17T06:46:50.121Z,145.97
2019-03-17T06:49:20.094Z,135.05
2019-03-17T06:51:49.932Z,143.15
2019-03-17T06:54:19.908Z,131.85
2019-03-17T06:56:49.742Z,139.77
2019-03-17T06:59:19.708Z,136.90
2019-03-17T07:01:49.681Z,136.85
2019-03-17T07:04:19.665Z,142.40
2019-03-17T07:06:49.717Z,144.60
2019-03-17T07:09:19.615Z,151.60
2019-03-17T07:11:49.603Z,142.37
2019-03-17T07:14:19.564Z,141.10
2019-03-17T07:16:49.476Z,135.40
2019-03-17T07:19:19.302Z,137.28
2019-03-17T07:21:49.286Z,149.00
2019-03-17T07:24:19.172Z,135.45
2019-03-17T07:26:50.095Z,146.68
2019-03-17T07:29:20.132Z,135.28
2019-03-17T07:31:50.037Z,144.82
2019-03-17T07:34:20.001Z,137.20
2019-03-17T07:36:49.910Z,139.45
2019-03-17T07:39:19.761Z,140.95
2019-03-17T07:41:49.815Z,136.47
2019-03-17T07:44:19.880Z,129.35
2019-03-17T07:46:49.931Z,134.72
2019-03-17T07:49:19.854Z,144.17
2019-03-17T07:51:49.696Z,137.10
2019-03-17T07:54:19.617Z,140.32
2019-03-17T07:56:49.595Z,142.28
2019-03-17T07:59:19.435Z,136.18
2019-03-17T08:01:49.350Z,143.20
2019-03-17T08:04:19.369Z,130.05
2019-03-17T08:06:49.285Z,135.45
2019-03-17T08:09:19.199Z,131.22
2019-03-17T08:11:49.049Z,137.40
2019-03-17T08:14:18.884Z,125.75
2019-03-17T08:16:48.732Z,129.55
2019-03-17T08:19:18.581Z,130.57
2019-03-17T08:21:48.573Z,133.05
2019-03-17T08:24:18.496Z,128.42
2019-03-17T08:26:50.096Z,131.22
2019-03-17T08:29:19.864Z,133.47
2019-03-17T08:31:49.833Z,123.05
2019-03-17T08:34:19.741Z,118.87
2019-03-17T08:36:49.743Z,111.83
2019-03-17T08:39:19.651Z,101.78
2019-03-17T08:41:49.552Z,89.30
2019-03-17T08:44:19.468Z,108.65
2019-03-17T08:46:49.373Z,96.22
2019-03-17T08:49:19.329Z,101.02
2019-03-17T08:51:49.304Z,105.27
2019-03-17T08:54:19.144Z,90.05
2019-03-17T08:56:49.138Z,89.40
2019-03-17T08:59:18.964Z,84.67
2019-03-17T09:01:48.867Z,88.45
2019-03-17T09:04:18.862Z,85.90
2019-03-17T09:06:48.779Z,77.65
2019-03-17T09:09:18.609Z,82.45
2019-03-17T09:11:48.566Z,90.77
2019-03-17T09:14:18.536Z,82.20
2019-03-17T09:16:49.527Z,94.72
2019-03-17T09:19:19.428Z,83.40
2019-03-17T09:21:49.260Z,74.27
2019-03-17T09:24:19.330Z,65.90
2019-03-17T09:26:49.317Z,62.23
2019-03-17T09:29:19.303Z,70.60
2019-03-17T09:31:49.126Z,59.95
2019-03-17T09:34:18.969Z,58.45
2019-03-17T09:36:48.937Z,61.13
2019-03-17T09:39:18.772Z,57.05
2019-03-17T09:41:48.674Z,63.15
2019-03-17T09:44:19.688Z,66.37
2019-03-17T09:46:49.586Z,59.80
2019-03-17T09:49:19.484Z,53.45
2019-03-17T09:51:49.398Z,57.43
2019-03-17T09:54:19.365Z,54.65
2019-03-17T09:56:49.373Z,52.38
2019-03-17T09:59:19.273Z,54.53
2019-03-17T10:01:49.185Z,50.35
2019-03-17T10:04:19.096Z,45.58
2019-03-17T10:06:49.014Z,44.42
2019-03-17T10:09:18.913Z,46.02
2019-03-17T10:11:48.892Z,43.10
2019-03-17T10:14:18.733Z,42.65
2019-03-17T10:16:48.771Z,40.00
2019-03-17T10:19:18.755Z,38.33
2019-03-17T10:21:48.729Z,32.95
2019-03-17T10:24:18.642Z,36.60
2019-03-17T10:26:48.633Z,32.15
2019-03-17T10:29:18.476Z,42.80
2019-03-17T10:31:48.309Z,35.92
2019-03-17T10:34:18.228Z,36.77
2019-03-17T10:36:48.207Z,37.20
2019-03-17T10:39:18.185Z,36.08
2019-03-17T10:41:48.079Z,35.80
2019-03-17T10:44:18.124Z,33.75
2019-03-17T10:46:47.990Z,32.70
2019-03-17T10:49:17.896Z,31.57
2019-03-17T10:51:47.803Z,32.00
2019-03-17T10:54:17.723Z,33.80
2019-03-17T10:56:47.675Z,37.33
2019-03-17T10:59:17.651Z,34.90
2019-03-17T11:01:47.728Z,32.05
2019-03-17T11:04:17.634Z,32.55
2019-03-17T11:06:47.866Z,34.60
2019-03-17T11:09:25.156Z,35.80
2019-03-17T11:11:49.404Z,35.83
2019-03-17T11:14:20.303Z,31.17
2019-03-17T11:16:50.285Z,36.63
2019-03-17T11:19:20.188Z,37.13
2019-03-17T11:21:50.092Z,33.05
2019-03-17T11:24:19.938Z,31.97
2019-03-17T11:26:49.828Z,33.35
2019-03-17T11:29:19.674Z,37.13
2019-03-17T11:31:49.504Z,35.88
2019-03-17T11:34:19.495Z,36.42
2019-03-17T11:36:49.472Z,36.85
2019-03-17T11:39:19.313Z,33.88
2019-03-17T11:41:49.146Z,37.93
2019-03-17T11:44:19.891Z,35.35
2019-03-17T11:46:49.728Z,38.45
2019-03-17T11:49:19.729Z,35.52
2019-03-17T11:51:49.648Z,34.63
2019-03-17T11:54:20.576Z,36.93
2019-03-17T11:56:50.628Z,37.42
2019-03-17T11:59:20.539Z,36.35
2019-03-17T12:01:50.452Z,39.18
2019-03-17T12:04:20.424Z,34.78
2019-03-17T12:06:50.412Z,35.92
2019-03-17T12:09:28.960Z,38.20
2019-03-17T12:11:51.907Z,39.95
2019-03-17T12:14:21.813Z,35.85
2019-03-17T12:16:51.736Z,34.60
2019-03-17T12:19:21.624Z,36.88
2019-03-17T12:21:51.589Z,42.78
2019-03-17T12:24:21.495Z,36.40
2019-03-17T12:26:51.401Z,33.18
2019-03-17T12:29:21.389Z,44.00
2019-03-17T12:31:51.224Z,39.00
2019-03-17T12:34:28.240Z,37.58
2019-03-17T12:36:52.742Z,39.40
2019-03-17T12:39:22.582Z,38.30
2019-03-17T12:41:52.476Z,40.70
2019-03-17T12:44:22.459Z,35.15
2019-03-17T12:46:52.424Z,34.53
2019-03-17T12:49:22.373Z,33.92
2019-03-17T12:51:52.282Z,33.92
2019-03-17T12:54:22.194Z,34.80
2019-03-17T12:56:52.288Z,29.37
2019-03-17T12:59:22.190Z,32.90
2019-03-17T13:01:52.102Z,34.78
2019-03-17T13:04:22.000Z,33.53
2019-03-17T13:06:51.922Z,36.08
2019-03-17T13:09:21.961Z,32.10
2019-03-17T13:11:51.936Z,36.23
2019-03-17T13:14:21.849Z,31.00
2019-03-17T13:16:51.873Z,34.15
2019-03-17T13:19:21.764Z,33.65
2019-03-17T13:21:51.674Z,35.45
2019-03-17T13:24:21.805Z,35.23
2019-03-17T13:26:51.705Z,33.00
2019-03-17T13:29:21.755Z,37.03
2019-03-17T13:31:51.584Z,32.10
2019-03-17T13:34:21.572Z,33.98
2019-03-17T13:36:51.550Z,34.00
2019-03-17T13:39:21.591Z,34.05
2019-03-17T13:41:51.629Z,35.15
2019-03-17T13:44:21.635Z,30.90
2019-03-17T13:46:51.678Z,38.98
2019-03-17T13:49:21.590Z,31.25
2019-03-17T13:51:51.515Z,30.95
2019-03-17T13:54:21.404Z,34.65
2019-03-17T13:56:51.397Z,34.65
2019-03-17T13:59:21.302Z,34.25
2019-03-17T14:01:51.388Z,30.82
2019-03-17T14:04:21.280Z,37.60
2019-03-17T14:06:51.183Z,34.30
2019-03-17T14:09:21.099Z,33.63
2019-03-17T14:11:51.004Z,34.80
2019-03-17T14:14:20.839Z,32.60
2019-03-17T14:16:50.752Z,31.93
2019-03-17T14:19:20.644Z,31.73
2019-03-17T14:21:52.884Z,34.67
2019-03-17T14:24:22.852Z,30.30
2019-03-17T14:26:52.833Z,33.38
2019-03-17T14:29:22.675Z,42.17
2019-03-17T14:31:52.728Z,34.70
2019-03-17T14:34:22.624Z,34.10
2019-03-17T14:36:52.474Z,29.55
2019-03-17T14:39:22.441Z,26.82
2019-03-17T14:41:54.028Z,38.83
2019-03-17T14:44:23.864Z,36.28
2019-03-17T14:46:53.831Z,31.75
2019-03-17T14:49:23.829Z,32.40
2019-03-17T14:51:53.873Z,29.07
2019-03-17T14:54:25.344Z,29.27
2019-03-17T14:56:55.390Z,30.00
2019-03-17T14:59:25.219Z,32.13
2019-03-17T15:01:55.047Z,35.00
2019-03-17T15:04:24.957Z,35.08
2019-03-17T15:06:55.009Z,30.70
2019-03-17T15:09:24.903Z,27.50
2019-03-17T15:11:54.948Z,33.35
2019-03-17T15:14:24.994Z,31.25
2019-03-17T15:16:54.904Z,32.65
2019-03-17T15:19:24.735Z,33.02
2019-03-17T15:21:54.719Z,35.38
2019-03-17T15:24:24.739Z,35.10
2019-03-17T15:26:55.766Z,31.25
2019-03-17T15:29:25.664Z,34.45
2019-03-17T15:31:55.578Z,35.70
2019-03-17T15:34:25.411Z,33.65
2019-03-17T15:36:55.469Z,36.85
2019-03-17T15:39:25.356Z,35.70
2019-03-17T15:41:55.224Z,39.88
2019-03-17T15:44:25.094Z,32.55
2019-03-17T15:46:55.475Z,39.23
2019-03-17T15:49:25.447Z,36.17
2019-03-17T15:51:55.453Z,36.55
2019-03-17T15:54:25.273Z,37.08
2019-03-17T15:56:55.179Z,37.93
2019-03-17T15:59:25.093Z,37.00
2019-03-17T16:01:54.988Z,39.18
2019-03-17T16:04:24.845Z,34.60
2019-03-17T16:06:54.810Z,37.30
2019-03-17T16:09:24.720Z,33.10
2019-03-17T16:11:54.553Z,39.20
2019-03-17T16:14:24.406Z,39.42
2019-03-17T16:16:54.372Z,35.83
2019-03-17T16:19:24.275Z,42.38
2019-03-17T16:21:54.185Z,35.48
2019-03-17T16:24:25.632Z,35.45
2019-03-17T16:26:55.603Z,37.60
2019-03-17T16:29:25.665Z,37.65
2019-03-17T16:31:55.588Z,38.92
2019-03-17T16:34:25.555Z,38.33
2019-03-17T16:36:55.422Z,35.08
2019-03-17T16:39:25.332Z,35.95
2019-03-17T16:41:56.276Z,38.75
2019-03-17T16:44:26.167Z,36.10
2019-03-17T16:46:56.145Z,40.33
2019-03-17T16:49:26.103Z,33.02
2019-03-17T16:51:56.099Z,36.48
2019-03-17T16:54:26.060Z,30.02
2019-03-17T16:56:55.978Z,39.03
2019-03-17T16:59:26.872Z,41.92
2019-03-17T17:01:56.818Z,40.33
2019-03-17T17:04:26.781Z,38.85
2019-03-17T17:06:56.899Z,37.10
2019-03-17T17:09:26.816Z,38.42
2019-03-17T17:11:57.949Z,40.65
2019-03-17T17:14:28.928Z,42.23
2019-03-17T17:16:58.976Z,41.30
2019-03-17T17:19:29.103Z,35.48
2019-03-17T17:21:59.104Z,38.25
2019-03-17T17:24:29.482Z,40.98
2019-03-17T17:26:59.465Z,40.75
2019-03-17T17:29:29.584Z,38.65
2019-03-17T17:31:59.554Z,42.83
2019-03-17T17:34:29.529Z,40.08
2019-03-17T17:36:59.449Z,41.48
2019-03-17T17:39:29.333Z,41.73
2019-03-17T17:42:08.372Z,44.63
2019-03-17T17:44:30.781Z,40.45
2019-03-17T17:47:00.687Z,42.78
2019-03-17T17:49:30.666Z,43.10
2019-03-17T17:52:03.442Z,47.55
2019-03-17T17:54:32.437Z,40.70
2019-03-17T17:57:02.352Z,45.98
2019-03-17T17:59:32.340Z,45.92
2019-03-17T18:02:02.386Z,46.65
2019-03-17T18:04:32.211Z,44.10
2019-03-17T18:07:02.191Z,46.23
2019-03-17T18:09:32.175Z,42.30
2019-03-17T18:12:02.162Z,43.58
2019-03-17T18:14:32.202Z,45.45
2019-03-17T18:17:02.194Z,39.25
2019-03-17T18:19:32.156Z,42.90
2019-03-17T18:22:03.466Z,43.45
2019-03-17T18:24:33.432Z,44.88
2019-03-17T18:27:03.401Z,40.17
2019-03-17T18:29:33.305Z,49.55
2019-03-17T18:32:03.152Z,40.98
2019-03-17T18:34:32.992Z,54.10
2019-03-17T18:37:02.819Z,43.98
2019-03-17T18:39:32.676Z,46.55
2019-03-17T18:42:02.570Z,42.20
2019-03-17T18:44:32.422Z,42.90
2019-03-17T18:47:02.263Z,43.73
2019-03-17T18:49:32.243Z,46.80
2019-03-17T18:52:02.224Z,51.55
2019-03-17T18:54:32.165Z,49.95
2019-03-17T18:57:02.147Z,46.88
2019-03-17T18:59:32.090Z,56.45
2019-03-17T19:02:02.075Z,54.77
2019-03-17T19:04:32.044Z,54.48
2019-03-17T19:07:02.171Z,51.85
2019-03-17T19:09:32.147Z,55.30
2019-03-17T19:12:02.128Z,54.42
2019-03-17T19:14:32.094Z,53.28
2019-03-17T19:17:02.010Z,58.33
2019-03-17T19:19:32.055Z,59.33
2019-03-17T19:22:02.112Z,65.05
2019-03-17T19:24:32.014Z,62.05
2019-03-17T19:27:01.955Z,56.42
2019-03-17T19:29:31.776Z,63.85
2019-03-17T19:32:01.756Z,61.77
2019-03-17T19:34:31.745Z,59.00
2019-03-17T19:37:01.774Z,56.48
2019-03-17T19:39:31.788Z,58.55
2019-03-17T19:42:01.763Z,60.40
2019-03-17T19:44:31.798Z,54.33
2019-03-17T19:47:01.681Z,48.38
2019-03-17T19:49:31.596Z,48.70
2019-03-17T19:52:01.558Z,46.80
2019-03-17T19:54:31.470Z,49.05
2019-03-17T19:57:01.376Z,46.73
2019-03-17T19:59:31.389Z,46.30
2019-03-17T20:02:01.360Z,42.17
2019-03-17T20:04:35.194Z,45.17
2019-03-17T20:07:02.734Z,41.40
2019-03-17T20:09:32.696Z,43.73
2019-03-17T20:12:02.611Z,52.33
2019-03-17T20:14:32.587Z,43.75
2019-03-17T20:17:02.512Z,44.60
2019-03-17T20:19:32.485Z,42.40
2019-03-17T20:22:02.407Z,47.00
2019-03-17T20:24:32.367Z,46.28
2019-03-17T20:27:02.351Z,42.83
2019-03-17T20:29:32.423Z,45.08
2019-03-17T20:32:03.388Z,45.55
2019-03-17T20:34:37.655Z,38.80
2019-03-17T20:37:07.595Z,46.40
2019-03-17T20:39:37.560Z,38.53
2019-03-17T20:42:07.726Z,31.87
2019-03-17T20:44:37.997Z,37.48
2019-03-17T20:47:07.952Z,35.03
2019-03-17T20:49:37.770Z,35.10
2019-03-17T20:52:07.615Z,36.38
2019-03-17T20:54:37.512Z,31.27
2019-03-17T20:57:07.408Z,31.20
2019-03-17T20:59:37.329Z,41.58
2019-03-17T21:02:07.242Z,36.55
2019-03-17T21:04:37.169Z,31.77
2019-03-17T21:07:07.167Z,34.20
2019-03-17T21:09:37.079Z,31.17
2019-03-17T21:12:07.052Z,30.68
2019-03-17T21:14:37.099Z,34.40
2019-03-17T21:17:07.087Z,34.43
2019-03-17T21:19:36.926Z,31.10
2019-03-17T21:22:06.832Z,26.23
2019-03-17T21:24:36.808Z,34.00
2019-03-17T21:27:06.712Z,26.25
2019-03-17T21:29:36.688Z,25.62
2019-03-17T21:32:06.615Z,28.55
2019-03-17T21:34:36.461Z,31.02
2019-03-17T21:37:06.693Z,30.05
2019-03-17T21:39:36.733Z,26.48
2019-03-17T21:42:06.631Z,28.40
2019-03-17T21:44:38.507Z,29.48
2019-03-17T21:47:08.081Z,31.00
2019-03-17T21:49:38.781Z,26.40
2019-03-17T21:52:08.686Z,31.10
2019-03-17T21:54:38.735Z,23.00
2019-03-17T21:57:08.638Z,32.80
2019-03-17T21:59:38.635Z,29.95
2019-03-17T22:02:13.036Z,30.02
2019-03-17T22:04:39.975Z,42.08
2019-03-17T22:07:09.950Z,26.15
2019-03-17T22:09:40.857Z,22.52
2019-03-17T22:12:10.908Z,23.87
2019-03-17T22:14:40.975Z,24.40
2019-03-17T22:17:10.870Z,29.87
2019-03-17T22:19:40.769Z,27.90
2019-03-17T22:22:10.758Z,24.45
2019-03-17T22:24:40.655Z,26.30
2019-03-17T22:27:10.559Z,26.52
2019-03-17T22:29:40.600Z,31.75
2019-03-17T22:32:10.517Z,26.73
2019-03-17T22:34:40.483Z,31.85
2019-03-17T22:37:10.387Z,22.00
2019-03-17T22:39:40.297Z,20.97
2019-03-17T22:42:10.197Z,28.38
2019-03-17T22:44:40.159Z,24.90
2019-03-17T22:47:10.068Z,19.90
2019-03-17T22:49:40.043Z,23.50
2019-03-17T22:52:10.013Z,28.85
2019-03-17T22:54:39.840Z,29.07
2019-03-17T22:57:09.853Z,23.85
2019-03-17T22:59:39.756Z,22.22
2019-03-17T23:02:09.643Z,29.30
2019-03-17T23:04:39.553Z,21.42
2019-03-17T23:07:09.447Z,20.70
2019-03-17T23:09:39.362Z,18.92
2019-03-17T23:12:09.246Z,22.77
2019-03-17T23:14:40.683Z,22.82
2019-03-17T23:17:10.651Z,21.40
2019-03-17T23:19:40.564Z,24.65
2019-03-17T23:22:10.460Z,17.50
2019-03-17T23:24:41.359Z,18.77
2019-03-17T23:27:11.337Z,23.15
2019-03-17T23:29:41.272Z,24.45
2019-03-17T23:32:11.232Z,23.27
2019-03-17T23:34:41.125Z,21.07
2019-03-17T23:37:11.103Z,27.60
2019-03-17T23:39:40.988Z,22.90
2019-03-17T23:42:10.891Z,22.80
2019-03-17T23:44:48.746Z,24.45
2019-03-17T23:47:12.515Z,24.85
2019-03-17T23:49:42.417Z,22.70
2019-03-17T23:52:12.327Z,24.65
2019-03-17T23:54:42.284Z,28.77
2019-03-17T23:57:12.111Z,26.37
2019-03-17T23:59:41.951Z,22.40
